createdAt,value
2022-07-30T00:01:15.231Z,19.85
2022-07-30T00:03:41.830Z,14.73
2022-07-30T00:06:08.409Z,17.98
2022-07-30T00:08:34.949Z,18.67
2022-07-30T00:11:01.415Z,18.80
2022-07-30T00:13:27.878Z,26.02
2022-07-30T00:15:54.401Z,20.13
2022-07-30T00:18:21.223Z,21.98
2022-07-30T00:20:49.094Z,23.75
2022-07-30T00:23:15.684Z,20.38
2022-07-30T00:25:42.212Z,24.02
2022-07-30T00:28:08.666Z,22.27
2022-07-30T00:30:35.343Z,22.42
2022-07-30T00:33:01.991Z,26.88
2022-07-30T00:35:28.573Z,24.17
2022-07-30T00:37:55.050Z,23.75
2022-07-30T00:40:21.687Z,22.77
2022-07-30T00:42:48.333Z,23.95
2022-07-30T00:45:16.367Z,25.25
2022-07-30T00:47:43.366Z,23.33
2022-07-30T00:50:11.900Z,22.15
2022-07-30T00:52:39.311Z,21.67
2022-07-30T00:55:07.930Z,22.52
2022-07-30T00:57:34.638Z,22.67
2022-07-30T01:00:01.459Z,19.17
2022-07-30T01:02:28.027Z,23.73
2022-07-30T01:04:54.598Z,26.70
2022-07-30T01:07:21.049Z,24.48
2022-07-30T01:09:50.432Z,21.00
2022-07-30T01:12:20.886Z,22.92
2022-07-30T01:14:47.829Z,23.88
2022-07-30T01:17:14.287Z,21.45
2022-07-30T01:19:48.977Z,20.10
2022-07-30T01:22:43.989Z,23.98
2022-07-30T01:25:32.114Z,23.17
2022-07-30T01:28:03.869Z,24.65
2022-07-30T01:30:35.668Z,26.55
2022-07-30T01:33:04.389Z,29.90
2022-07-30T01:35:33.219Z,23.20
2022-07-30T01:38:01.873Z,23.70
2022-07-30T01:40:29.363Z,26.02
2022-07-30T01:42:58.426Z,24.75
2022-07-30T01:45:26.574Z,28.98
2022-07-30T01:47:55.828Z,28.52
2022-07-30T01:50:23.137Z,34.42
2022-07-30T01:52:52.718Z,26.55
2022-07-30T01:55:26.419Z,29.77
2022-07-30T01:57:55.762Z,28.45
2022-07-30T02:00:24.492Z,29.83
2022-07-30T02:02:51.054Z,30.63
2022-07-30T02:05:17.546Z,29.65
2022-07-30T02:08:17.150Z,29.85
2022-07-30T02:10:51.364Z,33.28
2022-07-30T02:13:22.710Z,28.77
2022-07-30T02:15:55.082Z,31.80
2022-07-30T02:18:30.985Z,30.42
2022-07-30T02:21:07.395Z,34.38
2022-07-30T02:23:41.841Z,33.13
2022-07-30T02:26:10.508Z,35.55
2022-07-30T02:28:39.454Z,31.20
2022-07-30T02:31:17.310Z,31.70
2022-07-30T02:33:48.820Z,39.45
2022-07-30T02:36:18.592Z,35.17
2022-07-30T02:38:47.348Z,34.13
2022-07-30T02:41:15.353Z,37.80
2022-07-30T02:43:42.601Z,35.38
2022-07-30T02:46:11.569Z,32.88
2022-07-30T02:48:40.086Z,32.05
2022-07-30T02:51:08.384Z,31.98
2022-07-30T02:53:36.586Z,38.10
2022-07-30T02:56:05.147Z,34.08
2022-07-30T02:58:32.776Z,37.15
2022-07-30T03:01:01.033Z,36.47
2022-07-30T03:03:31.123Z,34.92
2022-07-30T03:05:58.324Z,41.53
2022-07-30T03:08:26.589Z,37.65
2022-07-30T03:10:55.770Z,40.00
2022-07-30T03:13:23.603Z,33.25
2022-07-30T03:15:51.846Z,36.90
2022-07-30T03:18:20.303Z,38.47
2022-07-30T03:20:51.373Z,36.35
2022-07-30T03:23:19.979Z,34.33
2022-07-30T03:25:56.728Z,33.65
2022-07-30T03:28:25.183Z,48.53
2022-07-30T03:30:53.483Z,37.30
2022-07-30T03:33:21.489Z,37.35
2022-07-30T03:35:49.725Z,37.17
2022-07-30T03:38:17.916Z,42.70
2022-07-30T03:40:45.804Z,35.53
2022-07-30T03:43:32.462Z,36.50
2022-07-30T03:46:01.095Z,39.42
2022-07-30T03:48:28.152Z,38.13
2022-07-30T03:50:55.133Z,32.65
2022-07-30T03:53:24.950Z,36.80
2022-07-30T03:55:52.961Z,37.95
2022-07-30T03:58:19.676Z,41.00
2022-07-30T04:00:51.077Z,38.33
2022-07-30T04:03:26.081Z,37.83
2022-07-30T04:05:53.251Z,39.78
2022-07-30T04:08:19.956Z,37.22
2022-07-30T04:10:48.411Z,39.47
2022-07-30T04:13:15.068Z,34.92
2022-07-30T04:16:39.974Z,37.85
2022-07-30T04:18:56.285Z,37.03
2022-07-30T04:21:24.964Z,36.63
2022-07-30T04:24:04.661Z,39.38
2022-07-30T04:26:33.887Z,42.28
2022-07-30T04:29:02.525Z,39.83
2022-07-30T04:31:29.314Z,37.85
2022-07-30T04:33:55.930Z,39.40
2022-07-30T04:36:30.378Z,39.35
2022-07-30T04:38:57.580Z,43.97
2022-07-30T04:41:24.251Z,36.78
2022-07-30T04:43:51.610Z,40.95
2022-07-30T04:46:18.706Z,36.80
2022-07-30T04:48:48.054Z,36.72
2022-07-30T04:51:34.942Z,36.03
2022-07-30T04:54:03.366Z,37.13
2022-07-30T04:56:31.394Z,34.83
2022-07-30T04:58:58.303Z,39.72
2022-07-30T05:01:35.946Z,36.10
2022-07-30T05:04:09.659Z,37.88
2022-07-30T05:06:37.479Z,33.40
2022-07-30T05:09:04.327Z,34.00
2022-07-30T05:11:30.849Z,34.92
2022-07-30T05:13:57.358Z,35.33
2022-07-30T05:16:24.076Z,33.47
2022-07-30T05:18:50.935Z,35.45
2022-07-30T05:21:17.512Z,33.75
2022-07-30T05:23:50.096Z,34.28
2022-07-30T05:26:21.241Z,32.17
2022-07-30T05:28:53.593Z,32.05
2022-07-30T05:31:22.098Z,29.17
2022-07-30T05:33:48.930Z,28.77
2022-07-30T05:36:15.487Z,30.48
2022-07-30T05:38:42.018Z,29.30
2022-07-30T05:41:19.159Z,28.48
2022-07-30T05:43:55.926Z,33.30
2022-07-30T05:46:23.911Z,30.35
2022-07-30T05:48:50.595Z,32.80
2022-07-30T05:51:18.781Z,35.72
2022-07-30T05:53:45.229Z,31.15
2022-07-30T05:56:11.819Z,33.53
2022-07-30T05:58:38.662Z,32.50
2022-07-30T06:01:05.156Z,34.90
2022-07-30T06:03:31.847Z,33.78
2022-07-30T06:05:58.331Z,35.42
2022-07-30T06:08:24.770Z,33.38
2022-07-30T06:10:51.359Z,34.15
2022-07-30T06:13:17.813Z,35.03
2022-07-30T06:15:44.326Z,30.85
2022-07-30T06:18:10.817Z,31.42
2022-07-30T06:20:37.297Z,36.47
2022-07-30T06:23:03.759Z,37.45
2022-07-30T06:25:30.639Z,33.55
2022-07-30T06:27:57.113Z,31.75
2022-07-30T06:30:31.491Z,32.60
2022-07-30T06:32:58.767Z,36.70
2022-07-30T06:35:25.763Z,33.80
2022-07-30T06:38:00.653Z,35.30
2022-07-30T06:40:34.680Z,32.70
2022-07-30T06:43:01.296Z,34.10
2022-07-30T06:45:27.890Z,34.08
2022-07-30T06:47:58.929Z,36.53
2022-07-30T06:50:26.110Z,34.92
2022-07-30T06:52:52.649Z,39.20
2022-07-30T06:55:19.508Z,36.00
2022-07-30T06:57:46.127Z,34.22
2022-07-30T07:00:16.294Z,36.58
2022-07-30T07:02:43.365Z,33.15
2022-07-30T07:05:10.917Z,51.85
2022-07-30T07:07:42.973Z,60.92
2022-07-30T07:10:13.064Z,71.43
2022-07-30T07:12:39.584Z,34.80
2022-07-30T07:15:06.670Z,32.72
2022-07-30T07:17:33.255Z,33.75
2022-07-30T07:20:02.591Z,35.35
2022-07-30T07:22:29.802Z,34.15
2022-07-30T07:24:59.041Z,33.28
2022-07-30T07:27:25.542Z,28.25
2022-07-30T07:30:01.355Z,30.80
2022-07-30T07:32:32.643Z,30.52
2022-07-30T07:34:59.155Z,31.55
2022-07-30T07:37:25.639Z,32.38
2022-07-30T07:39:52.105Z,28.85
2022-07-30T07:42:21.358Z,33.10
2022-07-30T07:44:47.835Z,28.33
2022-07-30T07:47:14.668Z,32.42
2022-07-30T07:49:41.845Z,33.25
2022-07-30T07:52:08.444Z,28.63
2022-07-30T07:54:35.109Z,28.45
2022-07-30T07:57:03.131Z,28.95
2022-07-30T07:59:39.609Z,27.98
2022-07-30T08:02:08.561Z,23.63
2022-07-30T08:04:36.051Z,25.90
2022-07-30T08:07:03.518Z,25.55
2022-07-30T08:09:43.834Z,25.83
2022-07-30T08:14:38.425Z,27.10
2022-07-30T08:17:05.346Z,25.73
2022-07-30T08:19:32.272Z,24.70
2022-07-30T08:21:59.749Z,24.13
2022-07-30T08:24:26.931Z,26.70
2022-07-30T08:26:53.836Z,26.08
2022-07-30T08:29:20.319Z,22.70
2022-07-30T08:31:47.146Z,23.80
2022-07-30T08:34:13.875Z,21.77
2022-07-30T08:36:46.462Z,22.38
2022-07-30T08:39:12.942Z,23.40
2022-07-30T08:41:41.745Z,22.30
2022-07-30T08:44:12.822Z,20.52
2022-07-30T08:46:46.221Z,20.80
2022-07-30T08:49:16.593Z,21.25
2022-07-30T08:51:43.481Z,20.00
2022-07-30T08:54:10.082Z,20.65
2022-07-30T08:56:37.203Z,20.67
2022-07-30T08:59:04.521Z,16.42
2022-07-30T09:01:31.179Z,14.57
2022-07-30T09:03:57.928Z,13.45
2022-07-30T09:06:24.565Z,12.90
2022-07-30T09:08:51.047Z,11.80
2022-07-30T09:11:17.576Z,10.32
2022-07-30T09:13:44.756Z,11.55
2022-07-30T09:16:25.137Z,9.45
2022-07-30T09:18:53.779Z,11.27
2022-07-30T09:21:26.405Z,11.13
2022-07-30T09:23:59.809Z,12.25
2022-07-30T09:26:27.103Z,10.30
2022-07-30T09:28:54.137Z,9.80
2022-07-30T09:31:23.812Z,8.85
2022-07-30T09:33:50.423Z,8.50
2022-07-30T09:36:18.284Z,11.07
2022-07-30T09:38:51.910Z,8.52
2022-07-30T09:41:40.709Z,7.60
2022-07-30T09:44:07.729Z,7.40
2022-07-30T09:46:47.548Z,7.40
2022-07-30T09:49:22.807Z,7.80
2022-07-30T09:51:56.101Z,9.05
2022-07-30T09:54:51.210Z,8.25
2022-07-30T09:57:26.047Z,9.43
2022-07-30T10:00:00.138Z,9.73
2022-07-30T10:02:31.928Z,9.15
2022-07-30T10:05:14.217Z,9.95
2022-07-30T10:08:16.374Z,12.02
2022-07-30T10:10:47.075Z,9.70
2022-07-30T10:15:46.092Z,8.05
2022-07-30T10:18:15.876Z,10.75
2022-07-30T10:20:44.669Z,10.10
2022-07-30T10:23:15.809Z,10.10
2022-07-30T10:25:48.836Z,11.73
2022-07-30T10:28:17.486Z,8.63
2022-07-30T10:30:45.158Z,11.15
2022-07-30T10:33:35.171Z,9.20
2022-07-30T10:35:59.067Z,8.60
2022-07-30T10:38:30.297Z,10.20
2022-07-30T10:41:47.315Z,7.50
2022-07-30T10:44:52.511Z,7.25
2022-07-30T10:47:20.164Z,8.00
2022-07-30T10:50:12.020Z,8.40
2022-07-30T10:52:45.546Z,10.40
2022-07-30T10:55:15.841Z,9.35
2022-07-30T10:58:11.436Z,13.30
2022-07-30T11:00:53.605Z,11.88
2022-07-30T11:03:41.236Z,12.93
2022-07-30T11:06:14.866Z,14.65
2022-07-30T11:08:48.130Z,14.23
2022-07-30T11:12:13.371Z,10.75
2022-07-30T11:14:46.974Z,13.65
2022-07-30T11:17:18.703Z,12.70
2022-07-30T11:20:11.764Z,11.90
2022-07-30T11:22:44.849Z,11.50
2022-07-30T11:25:51.000Z,12.05
2022-07-30T11:28:36.465Z,9.75
2022-07-30T11:31:10.201Z,13.00
2022-07-30T11:33:37.624Z,11.65
2022-07-30T11:36:08.057Z,9.88
2022-07-30T11:39:05.131Z,10.27
2022-07-30T11:41:33.548Z,10.07
2022-07-30T11:44:25.540Z,11.77
2022-07-30T11:46:52.413Z,11.10
2022-07-30T11:49:19.756Z,9.60
2022-07-30T11:51:48.868Z,10.05
2022-07-30T11:54:15.771Z,8.63
2022-07-30T11:57:04.057Z,10.13
2022-07-30T11:59:30.998Z,11.23
2022-07-30T12:02:00.154Z,11.60
2022-07-30T12:04:27.124Z,14.52
2022-07-30T12:06:54.050Z,13.80
2022-07-30T12:09:28.694Z,9.43
2022-07-30T12:11:56.080Z,11.07
2022-07-30T12:14:22.688Z,12.48
2022-07-30T12:16:51.529Z,11.38
2022-07-30T12:19:18.172Z,12.02
2022-07-30T12:21:46.519Z,13.45
2022-07-30T12:24:16.100Z,14.80
2022-07-30T12:26:42.702Z,13.43
2022-07-30T12:29:13.221Z,12.43
2022-07-30T12:31:40.796Z,11.68
2022-07-30T12:34:24.943Z,10.02
2022-07-30T12:36:51.603Z,13.77
2022-07-30T12:39:24.028Z,8.13
2022-07-30T12:41:52.669Z,10.38
2022-07-30T12:44:42.185Z,9.32
2022-07-30T12:47:20.565Z,10.00
2022-07-30T12:49:49.770Z,9.30
2022-07-30T12:52:35.571Z,7.55
2022-07-30T12:55:02.487Z,8.90
2022-07-30T12:58:08.858Z,9.05
2022-07-30T13:00:44.615Z,8.20
2022-07-30T13:03:28.211Z,10.13
2022-07-30T13:05:56.211Z,8.57
2022-07-30T13:08:45.623Z,7.60
2022-07-30T13:11:12.321Z,4.87
2022-07-30T13:13:39.127Z,6.72
2022-07-30T13:16:06.670Z,8.10
2022-07-30T13:18:35.793Z,8.05
2022-07-30T13:21:04.261Z,5.97
2022-07-30T13:23:30.997Z,5.70
2022-07-30T13:25:57.869Z,6.57
2022-07-30T13:28:24.953Z,6.72
2022-07-30T13:30:51.956Z,5.15
2022-07-30T13:33:18.876Z,5.45
2022-07-30T13:35:45.375Z,8.82
2022-07-30T13:38:13.497Z,5.88
2022-07-30T13:40:40.453Z,7.30
2022-07-30T13:43:07.412Z,7.30
2022-07-30T13:45:34.962Z,6.60
2022-07-30T13:48:01.815Z,6.00
2022-07-30T13:50:28.599Z,7.78
2022-07-30T13:53:01.763Z,8.20
2022-07-30T13:55:29.085Z,6.13
2022-07-30T13:57:56.372Z,7.22
2022-07-30T14:00:23.415Z,4.95
2022-07-30T14:02:50.674Z,8.15
2022-07-30T14:05:17.439Z,6.30
2022-07-30T14:07:43.923Z,5.53
2022-07-30T14:10:10.509Z,6.63
2022-07-30T14:12:37.918Z,4.07
2022-07-30T14:15:04.949Z,4.57
2022-07-30T14:17:31.663Z,5.07
2022-07-30T14:19:58.258Z,4.57
2022-07-30T14:22:24.772Z,4.80
2022-07-30T14:24:51.262Z,5.03
2022-07-30T14:27:20.411Z,4.35
2022-07-30T14:29:47.572Z,3.83
2022-07-30T14:32:14.132Z,5.78
2022-07-30T14:34:41.221Z,2.40
2022-07-30T14:37:15.671Z,3.05
2022-07-30T14:39:42.173Z,2.63
2022-07-30T14:42:08.682Z,5.35
2022-07-30T14:44:35.212Z,2.75
2022-07-30T14:47:01.747Z,4.65
2022-07-30T14:49:28.261Z,2.00
2022-07-30T14:51:54.787Z,2.63
2022-07-30T14:54:21.649Z,3.50
2022-07-30T14:56:48.901Z,2.60
2022-07-30T14:59:15.885Z,12.45
2022-07-30T15:01:43.849Z,1.95
2022-07-30T15:04:11.475Z,3.03
2022-07-30T15:06:38.076Z,2.80
2022-07-30T15:09:04.585Z,2.38
2022-07-30T15:11:40.292Z,3.00
2022-07-30T15:14:17.700Z,2.20
2022-07-30T15:16:47.925Z,2.17
2022-07-30T15:19:14.448Z,3.55
2022-07-30T15:21:40.961Z,2.22
2022-07-30T15:24:07.580Z,3.47
2022-07-30T15:26:34.087Z,1.73
2022-07-30T15:29:00.583Z,2.38
2022-07-30T15:31:27.079Z,2.70
2022-07-30T15:33:53.563Z,1.75
2022-07-30T15:36:20.257Z,1.75
2022-07-30T15:38:47.004Z,2.55
2022-07-30T15:41:14.039Z,1.70
2022-07-30T15:43:40.575Z,2.55
2022-07-30T15:46:07.012Z,2.38
2022-07-30T15:48:33.673Z,4.30
2022-07-30T15:51:02.728Z,2.42
2022-07-30T15:53:31.023Z,2.50
2022-07-30T15:55:58.467Z,4.55
2022-07-30T15:58:25.019Z,1.73
2022-07-30T16:00:51.634Z,2.00
2022-07-30T16:03:18.153Z,1.80
2022-07-30T16:05:52.132Z,4.45
2022-07-30T16:08:20.408Z,3.65
2022-07-30T16:10:47.089Z,3.80
2022-07-30T16:13:13.611Z,3.70
2022-07-30T16:15:40.244Z,3.05
2022-07-30T16:18:06.763Z,2.75
2022-07-30T16:20:34.193Z,3.40
2022-07-30T16:23:00.751Z,14.18
2022-07-30T16:25:27.397Z,9.40
2022-07-30T16:27:53.938Z,4.65
2022-07-30T16:30:20.521Z,2.35
2022-07-30T16:32:47.158Z,2.50
2022-07-30T16:35:13.708Z,5.20
2022-07-30T16:37:40.316Z,3.22
2022-07-30T16:40:07.199Z,2.45
2022-07-30T16:42:33.665Z,2.60
2022-07-30T16:45:00.250Z,2.75
2022-07-30T16:47:26.726Z,4.65
2022-07-30T16:49:53.252Z,2.33
2022-07-30T16:52:19.797Z,1.60
2022-07-30T16:54:46.877Z,2.15
2022-07-30T16:57:14.162Z,3.33
2022-07-30T16:59:43.607Z,5.82
2022-07-30T17:02:10.503Z,2.88
2022-07-30T17:04:37.041Z,2.88
2022-07-30T17:07:03.569Z,3.90
2022-07-30T17:09:36.467Z,2.47
2022-07-30T17:12:05.313Z,3.90
2022-07-30T17:14:32.733Z,2.30
2022-07-30T17:16:59.733Z,4.35
2022-07-30T17:19:26.617Z,3.00
2022-07-30T17:21:53.098Z,3.85
2022-07-30T17:24:19.621Z,3.00
2022-07-30T17:26:46.737Z,1.92
2022-07-30T17:29:15.279Z,2.40
2022-07-30T17:31:44.208Z,1.50
2022-07-30T17:34:13.851Z,2.70
2022-07-30T17:36:45.881Z,2.35
2022-07-30T17:40:22.989Z,2.38
2022-07-30T17:42:09.941Z,2.70
2022-07-30T17:44:37.538Z,9.00
2022-07-30T17:47:04.041Z,1.70
2022-07-30T17:49:30.803Z,4.78
2022-07-30T17:51:57.345Z,4.13
2022-07-30T17:54:23.932Z,3.80
2022-07-30T17:56:50.466Z,2.25
2022-07-30T17:59:16.998Z,2.15
2022-07-30T18:01:43.471Z,3.25
2022-07-30T18:04:09.958Z,1.50
2022-07-30T18:06:36.468Z,5.20
2022-07-30T18:09:04.691Z,3.40
2022-07-30T18:11:31.244Z,4.03
2022-07-30T18:13:57.840Z,2.13
2022-07-30T18:16:25.091Z,3.55
2022-07-30T18:18:51.733Z,4.15
2022-07-30T18:21:18.208Z,2.53
2022-07-30T18:23:44.668Z,3.72
2022-07-30T18:26:11.805Z,3.40
2022-07-30T18:28:38.296Z,3.95
2022-07-30T18:31:04.812Z,3.03
2022-07-30T18:33:31.305Z,2.38
2022-07-30T18:35:57.776Z,4.38
2022-07-30T18:38:24.243Z,3.03
2022-07-30T18:40:59.593Z,2.78
2022-07-30T18:43:27.682Z,2.38
2022-07-30T18:45:55.066Z,3.28
2022-07-30T18:48:21.907Z,2.40
2022-07-30T18:50:49.304Z,5.25
2022-07-30T18:53:16.094Z,3.90
2022-07-30T18:55:43.161Z,2.38
2022-07-30T18:58:09.782Z,3.55
2022-07-30T19:00:37.344Z,2.30
2022-07-30T19:03:04.233Z,2.38
2022-07-30T19:05:30.949Z,2.97
2022-07-30T19:07:58.975Z,2.22
2022-07-30T19:10:27.134Z,2.80
2022-07-30T19:12:54.772Z,2.67
2022-07-30T19:15:21.484Z,2.38
2022-07-30T19:17:49.297Z,2.78
2022-07-30T19:20:15.857Z,2.88
2022-07-30T19:22:42.477Z,5.63
2022-07-30T19:25:10.121Z,4.22
2022-07-30T19:27:36.828Z,3.47
2022-07-30T19:30:04.557Z,2.25
2022-07-30T19:32:31.173Z,5.07
2022-07-30T19:34:57.737Z,4.25
2022-07-30T19:37:24.235Z,2.67
2022-07-30T19:40:05.558Z,3.60
2022-07-30T19:42:33.914Z,4.50
2022-07-30T19:45:01.277Z,3.05
2022-07-30T19:47:38.364Z,5.70
2022-07-30T19:50:06.664Z,3.42
2022-07-30T19:52:33.401Z,3.00
2022-07-30T19:55:01.441Z,4.35
2022-07-30T19:57:53.014Z,2.67
2022-07-30T20:00:24.771Z,6.70
2022-07-30T20:02:52.025Z,3.15
2022-07-30T20:05:18.556Z,3.15
2022-07-30T20:07:47.049Z,3.70
2022-07-30T20:10:15.988Z,4.25
2022-07-30T20:12:49.452Z,3.58
2022-07-30T20:15:16.921Z,3.63
2022-07-30T20:17:43.477Z,5.80
2022-07-30T20:20:13.626Z,3.20
2022-07-30T20:22:40.228Z,8.13
2022-07-30T20:25:08.299Z,4.68
2022-07-30T20:27:38.700Z,4.20
2022-07-30T20:30:07.953Z,5.18
2022-07-30T20:32:40.590Z,6.90
2022-07-30T20:35:12.941Z,3.58
2022-07-30T20:37:40.313Z,5.75
2022-07-30T20:40:22.362Z,9.43
2022-07-30T20:42:49.619Z,4.30
2022-07-30T20:45:16.101Z,3.97
2022-07-30T20:47:43.620Z,9.15
2022-07-30T20:50:14.179Z,4.60
2022-07-30T20:52:46.461Z,3.88
2022-07-30T20:55:16.566Z,3.17
2022-07-30T20:57:55.941Z,5.10
2022-07-30T21:00:26.310Z,7.32
2022-07-30T21:02:52.819Z,3.72
2022-07-30T21:05:19.850Z,4.07
2022-07-30T21:07:46.766Z,5.10
2022-07-30T21:10:13.384Z,3.92
2022-07-30T21:12:41.387Z,3.72
2022-07-30T21:15:23.539Z,4.47
2022-07-30T21:17:51.174Z,5.78
2022-07-30T21:20:27.354Z,3.60
2022-07-30T21:22:55.913Z,3.22
2022-07-30T21:25:23.578Z,4.47
2022-07-30T21:28:02.993Z,4.45
2022-07-30T21:30:30.299Z,5.70
2022-07-30T21:32:56.756Z,4.90
2022-07-30T21:35:23.487Z,8.88
2022-07-30T21:37:49.988Z,4.10
2022-07-30T21:40:19.027Z,10.57
2022-07-30T21:42:51.473Z,5.85
2022-07-30T21:45:19.624Z,5.07
2022-07-30T21:50:33.517Z,8.25
2022-07-30T21:53:00.996Z,6.22
2022-07-30T21:55:27.665Z,8.25
2022-07-30T21:58:00.064Z,7.35
2022-07-30T22:00:50.958Z,6.50
2022-07-30T22:04:03.554Z,7.57
2022-07-30T22:06:04.875Z,6.65
2022-07-30T22:08:39.057Z,7.90
2022-07-30T22:11:08.982Z,5.82
2022-07-30T22:13:35.944Z,6.05
2022-07-30T22:16:18.225Z,7.85
2022-07-30T22:18:45.482Z,8.70
2022-07-30T22:21:11.983Z,20.48
2022-07-30T22:23:41.369Z,7.15
2022-07-30T22:26:23.851Z,11.57
2022-07-30T22:28:53.203Z,6.15
2022-07-30T22:31:20.967Z,7.53
2022-07-30T22:33:48.826Z,8.07
2022-07-30T22:36:17.660Z,7.70
2022-07-30T22:38:58.469Z,7.55
2022-07-30T22:41:25.997Z,7.50
2022-07-30T22:43:55.880Z,7.70
2022-07-30T22:46:30.745Z,8.50
2022-07-30T22:48:57.971Z,9.65
2022-07-30T22:51:26.084Z,9.80
2022-07-30T22:54:13.248Z,8.70
2022-07-30T22:56:40.525Z,9.55
2022-07-30T22:59:07.003Z,9.73
2022-07-30T23:01:33.662Z,11.85
2022-07-30T23:04:01.479Z,9.63
2022-07-30T23:06:28.337Z,9.77
2022-07-30T23:08:56.957Z,8.90
2022-07-30T23:11:23.495Z,9.35
2022-07-30T23:12:31.148Z,4.50
2022-07-30T23:13:53.653Z,10.32
2022-07-30T23:16:20.292Z,15.32
2022-07-30T23:18:46.735Z,9.18
2022-07-30T23:21:13.379Z,9.57
2022-07-30T23:23:40.542Z,10.30
2022-07-30T23:26:08.466Z,9.90
2022-07-30T23:28:36.822Z,13.00
2022-07-30T23:31:03.982Z,13.77
2022-07-30T23:33:31.361Z,11.73
2022-07-30T23:36:00.299Z,13.55
2022-07-30T23:38:27.248Z,11.50
2022-07-30T23:40:54.237Z,10.52
2022-07-30T23:43:20.831Z,18.08
2022-07-30T23:45:47.301Z,11.35
2022-07-30T23:48:14.968Z,12.73
2022-07-30T23:50:41.494Z,14.30
2022-07-30T23:53:07.935Z,13.40
2022-07-30T23:55:35.956Z,12.48
2022-07-30T23:58:02.428Z,13.82
